Time;durP1;ratioP1;P1;durP2;ratioP2;P2;SDS_P1;SDS_P2;PMS_P1;PMS_P2;Temp;Humidity;BMP_temperature;BMP_pressure;BME280_temperature;BME280_humidity;BME280_pressure;Samples;Min_cycle;Max_cycle;Signal;HPM_P1;HPM_P2
2023/03/10 00:01:45;;;;;;;;;;;9.40;99.90;;;;;;5101000;28;19985;-68
2023/03/10 00:04:12;;;;;;;;;;;9.40;99.90;;;;;;5098369;28;19924;-67
2023/03/10 00:06:40;;;;;;;;;;;9.40;99.90;;;;;;5103066;28;19931;-67
2023/03/10 00:09:08;;;;;;;;;;;9.50;99.90;;;;;;5104651;28;19977;-69
2023/03/10 00:11:34;;;;;;;;;;;9.50;99.90;;;;;;5103087;28;20362;-69
2023/03/10 00:14:01;;;;;;;;;;;9.40;99.90;;;;;;5105074;28;19970;-68
2023/03/10 00:16:28;;;;;;;;;;;9.40;99.90;;;;;;5102546;28;19924;-68
2023/03/10 00:18:55;;;;;;;;;;;9.50;99.90;;;;;;5105753;28;19924;-67
2023/03/10 00:21:24;;;;;;;;;;;9.50;99.90;;;;;;5101800;28;19977;-67
2023/03/10 00:23:52;;;;;;;;;;;9.50;99.90;;;;;;5099316;28;19928;-69
2023/03/10 00:26:19;;;;;;;;;;;9.40;99.90;;;;;;5104191;28;19930;-69
2023/03/10 00:28:46;;;;;;;;;;;9.40;99.90;;;;;;5102759;28;19924;-67
2023/03/10 00:31:13;;;;;;;;;;;9.50;99.90;;;;;;5105818;28;20378;-69
2023/03/10 00:33:40;;;;;;;;;;;9.50;99.90;;;;;;5098739;28;20619;-69
2023/03/10 00:36:08;;;;;;;;;;;9.50;99.90;;;;;;5101892;28;19923;-67
2023/03/10 00:38:34;;;;;;;;;;;9.50;99.90;;;;;;5105771;28;19946;-66
2023/03/10 00:41:03;;;;;;;;;;;9.50;99.90;;;;;;5106725;28;19980;-68
2023/03/10 00:43:30;;;;;;;;;;;9.50;99.90;;;;;;5095598;28;19993;-68
2023/03/10 00:45:56;;;;;;;;;;;9.60;99.90;;;;;;5099903;28;19927;-67
2023/03/10 00:48:23;;;;;;;;;;;9.60;99.90;;;;;;5097641;28;19927;-68
2023/03/10 00:50:50;;;;;;;;;;;9.60;99.90;;;;;;5101596;28;20279;-68
2023/03/10 00:53:17;;;;;;;;;;;9.60;99.90;;;;;;5097455;28;19979;-68
2023/03/10 00:55:43;;;;;;;;;;;9.70;99.90;;;;;;5103840;28;20328;-68
2023/03/10 00:58:11;;;;;;;;;;;9.60;99.90;;;;;;5103821;28;19977;-68
2023/03/10 01:00:37;;;;;;;;;;;9.70;99.90;;;;;;5103201;28;20039;-68
2023/03/10 01:03:04;;;;;;;;;;;9.70;99.90;;;;;;5100170;28;19927;-68
2023/03/10 01:05:31;;;;;;;;;;;9.70;99.90;;;;;;5102542;28;19985;-67
2023/03/10 01:07:57;;;;;;;;;;;9.80;99.90;;;;;;5097081;28;20395;-69
2023/03/10 01:10:24;;;;;;;;;;;9.80;99.90;;;;;;5102934;28;19924;-69
2023/03/10 01:12:50;;;;;;;;;;;9.80;99.90;;;;;;5102624;28;19927;-68
2023/03/10 01:15:18;;;;;;;;;;;9.80;99.90;;;;;;5098441;28;19924;-66
2023/03/10 01:17:45;;;;;;;;;;;9.70;99.90;;;;;;5098593;28;20505;-68
2023/03/10 01:20:14;;;;;;;;;;;9.70;99.90;;;;;;5100924;28;20333;-68
2023/03/10 01:22:40;;;;;;;;;;;9.70;99.90;;;;;;5102567;28;20354;-68
2023/03/10 01:25:07;;;;;;;;;;;9.70;99.90;;;;;;5103073;28;19953;-68
2023/03/10 01:27:34;;;;;;;;;;;9.70;99.90;;;;;;5103374;28;19970;-68
2023/03/10 01:30:00;;;;;;;;;;;9.70;99.90;;;;;;5099633;28;19985;-68
2023/03/10 01:32:28;;;;;;;;;;;9.70;99.90;;;;;;5100417;28;20290;-68
2023/03/10 01:34:55;;;;;;;;;;;9.70;99.90;;;;;;5102433;28;19978;-68
2023/03/10 01:37:21;;;;;;;;;;;9.70;99.90;;;;;;5106381;28;19974;-68
2023/03/10 01:39:48;;;;;;;;;;;9.70;99.90;;;;;;5103248;28;19924;-67
2023/03/10 01:42:14;;;;;;;;;;;9.70;99.90;;;;;;5098393;28;20379;-68
2023/03/10 01:44:41;;;;;;;;;;;9.70;99.90;;;;;;5098043;28;19981;-68
2023/03/10 01:47:07;;;;;;;;;;;9.70;99.90;;;;;;5102075;28;20074;-69
2023/03/10 01:49:37;;;;;;;;;;;9.70;99.90;;;;;;5099415;28;19927;-67
2023/03/10 01:52:06;;;;;;;;;;;9.70;99.90;;;;;;5093749;28;20374;-69
2023/03/10 01:54:38;;;;;;;;;;;9.60;99.90;;;;;;5107399;28;20328;-67
2023/03/10 01:57:06;;;;;;;;;;;9.60;99.90;;;;;;5103741;28;19920;-68
2023/03/10 01:59:33;;;;;;;;;;;9.60;99.90;;;;;;5102988;28;19919;-68
2023/03/10 02:02:00;;;;;;;;;;;9.50;99.90;;;;;;5103776;28;19923;-69
2023/03/10 02:04:30;;;;;;;;;;;9.60;99.90;;;;;;5103310;28;19920;-68
2023/03/10 02:06:58;;;;;;;;;;;9.50;99.90;;;;;;5106832;28;19923;-67
2023/03/10 02:09:25;;;;;;;;;;;9.50;99.90;;;;;;5102972;28;20378;-67
2023/03/10 02:11:52;;;;;;;;;;;9.50;99.90;;;;;;5107286;28;19927;-67
2023/03/10 02:14:19;;;;;;;;;;;9.50;99.90;;;;;;5101472;28;19919;-66
2023/03/10 02:16:45;;;;;;;;;;;9.50;99.90;;;;;;5104314;28;19965;-69
2023/03/10 02:19:22;;;;;;;;;;;9.50;99.90;;;;;;5106311;28;20312;-68
2023/03/10 02:21:53;;;;;;;;;;;9.50;99.90;;;;;;5106785;28;19920;-67
2023/03/10 02:24:26;;;;;;;;;;;9.60;99.90;;;;;;5104847;28;19924;-67
2023/03/10 02:26:54;;;;;;;;;;;9.60;99.90;;;;;;5108078;28;20372;-68
2023/03/10 02:29:25;;;;;;;;;;;9.60;99.90;;;;;;5105129;28;20390;-67
2023/03/10 02:31:52;;;;;;;;;;;9.70;99.90;;;;;;5106140;28;19923;-67
2023/03/10 02:34:19;;;;;;;;;;;9.70;99.90;;;;;;5108702;28;19964;-68
2023/03/10 02:36:46;;;;;;;;;;;9.70;99.90;;;;;;5103754;28;19927;-69
2023/03/10 02:39:12;;;;;;;;;;;9.80;99.90;;;;;;5106060;28;19924;-69
2023/03/10 02:41:39;;;;;;;;;;;9.70;99.90;;;;;;5106534;28;19920;-69
2023/03/10 02:44:07;;;;;;;;;;;9.80;99.90;;;;;;5105470;28;19920;-68
2023/03/10 02:46:35;;;;;;;;;;;9.70;99.90;;;;;;5102478;28;19920;-68
2023/03/10 02:49:02;;;;;;;;;;;9.70;99.90;;;;;;5106391;28;19988;-66
2023/03/10 02:51:30;;;;;;;;;;;9.60;99.90;;;;;;5100320;28;19927;-67
2023/03/10 02:53:57;;;;;;;;;;;9.60;99.90;;;;;;5103955;28;19965;-66
2023/03/10 02:56:24;;;;;;;;;;;9.60;99.90;;;;;;5098590;28;19924;-65
2023/03/10 02:58:50;;;;;;;;;;;9.60;99.90;;;;;;5105179;28;19968;-66
2023/03/10 03:01:17;;;;;;;;;;;9.60;99.90;;;;;;5106437;28;19943;-67
2023/03/10 03:03:45;;;;;;;;;;;9.70;99.90;;;;;;5106075;28;20305;-67
2023/03/10 03:06:13;;;;;;;;;;;9.70;99.90;;;;;;5103903;28;22450;-67
2023/03/10 03:08:40;;;;;;;;;;;9.50;99.90;;;;;;5106063;28;19954;-66
2023/03/10 03:11:06;;;;;;;;;;;9.50;99.90;;;;;;5101449;28;19924;-67
2023/03/10 03:13:33;;;;;;;;;;;9.50;99.90;;;;;;5102311;28;19993;-67
2023/03/10 03:15:59;;;;;;;;;;;9.60;99.90;;;;;;5104726;28;19931;-67
2023/03/10 03:18:26;;;;;;;;;;;9.60;99.90;;;;;;5106030;28;20007;-65
2023/03/10 03:20:54;;;;;;;;;;;9.60;99.90;;;;;;5099665;28;20252;-66
2023/03/10 03:23:20;;;;;;;;;;;9.60;99.90;;;;;;5107644;28;20374;-66
2023/03/10 03:25:47;;;;;;;;;;;9.60;99.90;;;;;;5102833;28;19924;-67
2023/03/10 03:28:13;;;;;;;;;;;9.60;99.90;;;;;;5107104;28;19924;-66
2023/03/10 03:30:40;;;;;;;;;;;9.60;99.90;;;;;;5106557;28;19928;-67
2023/03/10 03:33:07;;;;;;;;;;;9.60;99.90;;;;;;5099711;28;19928;-66
2023/03/10 03:35:35;;;;;;;;;;;9.60;99.90;;;;;;5103705;28;19924;-67
2023/03/10 03:38:03;;;;;;;;;;;9.60;99.90;;;;;;5105332;28;19931;-66
2023/03/10 03:40:32;;;;;;;;;;;9.60;99.90;;;;;;5105177;28;19973;-66
2023/03/10 03:42:58;;;;;;;;;;;9.70;99.90;;;;;;5105477;28;19924;-65
2023/03/10 03:45:26;;;;;;;;;;;9.60;99.90;;;;;;5104911;28;19924;-67
2023/03/10 03:47:52;;;;;;;;;;;9.50;99.90;;;;;;5102791;28;20300;-67
2023/03/10 03:50:20;;;;;;;;;;;9.60;99.90;;;;;;5098949;28;19928;-65
2023/03/10 03:52:47;;;;;;;;;;;9.60;99.90;;;;;;5103379;28;19924;-65
2023/03/10 03:55:15;;;;;;;;;;;9.60;99.90;;;;;;5101941;28;19924;-66
2023/03/10 03:57:43;;;;;;;;;;;9.70;99.90;;;;;;5103620;28;20439;-67
2023/03/10 04:00:12;;;;;;;;;;;9.70;99.90;;;;;;5104711;28;19931;-67
2023/03/10 04:02:39;;;;;;;;;;;9.70;99.90;;;;;;5104896;28;19924;-65
2023/03/10 04:05:06;;;;;;;;;;;9.60;99.90;;;;;;5100759;28;20440;-66
2023/03/10 04:07:33;;;;;;;;;;;9.50;99.90;;;;;;5094892;28;19970;-67
2023/03/10 04:09:59;;;;;;;;;;;9.40;99.90;;;;;;5102285;28;20292;-66
2023/03/10 04:12:28;;;;;;;;;;;9.40;99.90;;;;;;5101753;28;19924;-66
2023/03/10 04:14:54;;;;;;;;;;;9.50;99.90;;;;;;5102373;28;20275;-67
2023/03/10 04:17:21;;;;;;;;;;;9.60;99.90;;;;;;5100268;28;19924;-66
2023/03/10 04:19:47;;;;;;;;;;;9.60;99.90;;;;;;5105623;28;19923;-66
2023/03/10 04:22:14;;;;;;;;;;;9.40;99.90;;;;;;5102899;28;20279;-67
2023/03/10 04:24:40;;;;;;;;;;;9.30;99.90;;;;;;5104949;28;19945;-66
2023/03/10 04:27:08;;;;;;;;;;;9.20;99.90;;;;;;5103084;28;19928;-67
2023/03/10 04:29:36;;;;;;;;;;;9.20;99.90;;;;;;5100651;28;19930;-67
2023/03/10 04:32:03;;;;;;;;;;;9.20;99.90;;;;;;5101111;28;19931;-65
2023/03/10 04:34:29;;;;;;;;;;;9.20;99.90;;;;;;5103296;28;19931;-66
2023/03/10 04:36:56;;;;;;;;;;;9.10;99.90;;;;;;5104440;28;19924;-65
2023/03/10 04:39:23;;;;;;;;;;;9.10;99.90;;;;;;5100069;28;19993;-67
2023/03/10 04:41:49;;;;;;;;;;;9.10;99.90;;;;;;5100639;28;19981;-66
2023/03/10 04:44:16;;;;;;;;;;;9.00;99.90;;;;;;5103732;28;19924;-65
2023/03/10 04:46:44;;;;;;;;;;;8.90;99.90;;;;;;5102148;28;19958;-66
2023/03/10 04:49:10;;;;;;;;;;;9.00;99.90;;;;;;5106199;28;19924;-65
2023/03/10 04:51:37;;;;;;;;;;;9.00;99.90;;;;;;5107704;28;19924;-67
2023/03/10 04:54:03;;;;;;;;;;;8.90;99.90;;;;;;5101159;28;19923;-66
2023/03/10 04:56:30;;;;;;;;;;;9.10;99.90;;;;;;5103944;28;19935;-66
2023/03/10 04:58:57;;;;;;;;;;;9.00;99.90;;;;;;5103173;28;19927;-66
2023/03/10 05:01:23;;;;;;;;;;;9.00;99.90;;;;;;5100561;28;19925;-67
2023/03/10 05:03:51;;;;;;;;;;;9.00;99.90;;;;;;5102056;28;19932;-67
2023/03/10 05:06:19;;;;;;;;;;;9.10;99.90;;;;;;5100878;28;19928;-66
2023/03/10 05:08:46;;;;;;;;;;;9.10;99.90;;;;;;5102956;28;19924;-66
2023/03/10 05:11:12;;;;;;;;;;;9.10;99.90;;;;;;5103111;28;19927;-67
2023/03/10 05:13:39;;;;;;;;;;;9.00;99.90;;;;;;5103050;28;19928;-66
2023/03/10 05:16:11;;;;;;;;;;;9.00;99.90;;;;;;5100702;28;20347;-66
2023/03/10 05:18:38;;;;;;;;;;;9.00;99.90;;;;;;5103682;28;19982;-66
2023/03/10 05:21:06;;;;;;;;;;;9.00;99.90;;;;;;5099497;28;20284;-66
2023/03/10 05:23:32;;;;;;;;;;;9.00;99.90;;;;;;5103745;28;19932;-68
2023/03/10 05:26:02;;;;;;;;;;;9.10;99.90;;;;;;5095667;28;20367;-65
2023/03/10 05:28:28;;;;;;;;;;;9.00;99.90;;;;;;5100702;28;20382;-67
2023/03/10 05:30:55;;;;;;;;;;;9.00;99.90;;;;;;5099788;28;19977;-67
2023/03/10 05:33:21;;;;;;;;;;;9.00;99.90;;;;;;5102083;28;20027;-67
2023/03/10 05:35:48;;;;;;;;;;;9.00;99.90;;;;;;5100739;28;19952;-68
2023/03/10 05:38:16;;;;;;;;;;;9.00;99.90;;;;;;5102016;28;19954;-67
2023/03/10 05:40:43;;;;;;;;;;;8.90;99.90;;;;;;5100763;28;20040;-67
2023/03/10 05:43:10;;;;;;;;;;;8.90;99.90;;;;;;5098648;28;20117;-67
2023/03/10 05:45:37;;;;;;;;;;;8.80;99.90;;;;;;5102117;28;19924;-67
2023/03/10 05:48:04;;;;;;;;;;;8.80;99.90;;;;;;5098598;28;20027;-66
2023/03/10 05:50:30;;;;;;;;;;;8.80;99.90;;;;;;5094623;28;19932;-66
2023/03/10 05:52:57;;;;;;;;;;;8.80;99.90;;;;;;5101349;28;20424;-67
2023/03/10 05:55:27;;;;;;;;;;;8.80;99.90;;;;;;5100471;28;19928;-65
2023/03/10 05:57:54;;;;;;;;;;;8.80;99.90;;;;;;5100972;28;19932;-67
2023/03/10 06:00:21;;;;;;;;;;;8.70;99.90;;;;;;5100394;28;19928;-66
2023/03/10 06:02:47;;;;;;;;;;;8.80;99.90;;;;;;5101781;28;19923;-66
2023/03/10 06:05:14;;;;;;;;;;;8.80;99.90;;;;;;5102699;28;19928;-66
2023/03/10 06:07:41;;;;;;;;;;;8.80;99.90;;;;;;5100799;28;20447;-66
2023/03/10 06:10:08;;;;;;;;;;;8.90;99.90;;;;;;5101174;28;19932;-66
2023/03/10 06:12:36;;;;;;;;;;;8.90;99.90;;;;;;5103743;28;20239;-66
2023/03/10 06:15:03;;;;;;;;;;;8.90;99.90;;;;;;5101217;28;20785;-66
2023/03/10 06:17:29;;;;;;;;;;;8.80;99.90;;;;;;5097947;28;19924;-67
2023/03/10 06:19:56;;;;;;;;;;;8.90;99.90;;;;;;5100215;28;19923;-70
2023/03/10 06:22:22;;;;;;;;;;;8.90;99.90;;;;;;5102608;28;20271;-69
2023/03/10 06:24:49;;;;;;;;;;;9.00;99.90;;;;;;5100353;28;19928;-67
2023/03/10 06:27:15;;;;;;;;;;;9.00;99.90;;;;;;5100848;28;19924;-67
2023/03/10 06:29:43;;;;;;;;;;;9.00;99.90;;;;;;5102721;28;19923;-67
2023/03/10 06:32:10;;;;;;;;;;;9.10;99.90;;;;;;5098617;28;19928;-67
2023/03/10 06:34:36;;;;;;;;;;;9.10;99.90;;;;;;5103668;28;19992;-67
2023/03/10 06:37:03;;;;;;;;;;;9.00;99.90;;;;;;5103103;28;19980;-66
2023/03/10 06:42:05;;;;;;;;;;;9.10;99.90;;;;;;5060137;22;20304;-67
2023/03/10 06:44:32;;;;;;;;;;;9.00;99.90;;;;;;5035856;28;20414;-67
2023/03/10 06:47:00;;;;;;;;;;;9.00;99.90;;;;;;5029867;28;19929;-67
2023/03/10 06:49:28;;;;;;;;;;;9.00;99.90;;;;;;5023864;28;20012;-66
2023/03/10 06:51:54;;;;;;;;;;;9.10;99.90;;;;;;5026614;28;19968;-66
2023/03/10 06:54:22;;;;;;;;;;;9.20;99.90;;;;;;5028551;28;19979;-66
2023/03/10 06:56:48;;;;;;;;;;;9.10;99.90;;;;;;5023330;28;20016;-67
2023/03/10 06:59:17;;;;;;;;;;;9.20;99.90;;;;;;5029557;28;19926;-66
2023/03/10 07:01:44;;;;;;;;;;;9.20;99.90;;;;;;5026313;28;19983;-66
2023/03/10 07:04:12;;;;;;;;;;;9.30;99.90;;;;;;5025948;28;19925;-64
2023/03/10 07:06:39;;;;;;;;;;;9.30;99.90;;;;;;5019513;28;19925;-65
2023/03/10 07:09:05;;;;;;;;;;;9.30;99.90;;;;;;5027393;28;19956;-65
2023/03/10 07:11:32;;;;;;;;;;;9.30;99.90;;;;;;5024681;28;19948;-64
2023/03/10 07:13:58;;;;;;;;;;;9.30;99.90;;;;;;5035355;28;19929;-65
2023/03/10 07:16:25;;;;;;;;;;;9.30;99.90;;;;;;5029446;28;19991;-66
2023/03/10 07:18:51;;;;;;;;;;;9.20;99.90;;;;;;5027634;28;20400;-66
2023/03/10 07:21:20;;;;;;;;;;;9.10;99.90;;;;;;5029705;28;19933;-65
2023/03/10 07:23:46;;;;;;;;;;;9.10;99.90;;;;;;5013520;28;19972;-65
2023/03/10 07:26:13;;;;;;;;;;;9.10;99.90;;;;;;5013520;28;19937;-65
2023/03/10 07:28:40;;;;;;;;;;;9.10;99.90;;;;;;5013042;28;20410;-65
2023/03/10 07:31:08;;;;;;;;;;;9.20;99.90;;;;;;5013369;28;19933;-63
2023/03/10 07:33:34;;;;;;;;;;;9.10;99.90;;;;;;5015301;28;19972;-63
2023/03/10 07:36:03;;;;;;;;;;;9.10;99.90;;;;;;5032240;28;19972;-65
2023/03/10 07:38:31;;;;;;;;;;;9.20;99.90;;;;;;5025578;28;19974;-64
2023/03/10 07:40:58;;;;;;;;;;;9.20;99.90;;;;;;5013103;28;19929;-66
2023/03/10 07:43:25;;;;;;;;;;;9.40;99.90;;;;;;5022938;28;19959;-66
2023/03/10 07:45:51;;;;;;;;;;;9.30;99.90;;;;;;5028897;28;19971;-67
2023/03/10 07:48:18;;;;;;;;;;;9.40;99.90;;;;;;5026215;28;19932;-64
2023/03/10 07:50:44;;;;;;;;;;;9.40;99.90;;;;;;5027039;28;19929;-66
2023/03/10 07:53:11;;;;;;;;;;;9.40;99.90;;;;;;5027960;28;19944;-66
2023/03/10 07:55:39;;;;;;;;;;;9.40;99.90;;;;;;5027643;28;19932;-64
2023/03/10 07:58:06;;;;;;;;;;;9.40;99.90;;;;;;5024564;28;19926;-66
2023/03/10 08:00:32;;;;;;;;;;;9.50;99.90;;;;;;5028161;28;19933;-69
2023/03/10 08:02:59;;;;;;;;;;;9.40;99.90;;;;;;5026100;28;19929;-66
2023/03/10 08:05:26;;;;;;;;;;;9.30;99.90;;;;;;5020548;28;19975;-66
2023/03/10 08:07:52;;;;;;;;;;;9.30;99.90;;;;;;5024899;28;19941;-66
2023/03/10 08:10:19;;;;;;;;;;;9.40;99.90;;;;;;5024114;28;20014;-66
2023/03/10 08:12:47;;;;;;;;;;;9.40;99.90;;;;;;5036849;28;19929;-66
2023/03/10 08:15:13;;;;;;;;;;;9.40;99.90;;;;;;5034005;28;19936;-66
2023/03/10 08:17:40;;;;;;;;;;;9.30;99.90;;;;;;5028341;28;20392;-65
2023/03/10 08:20:07;;;;;;;;;;;9.40;99.90;;;;;;5022162;28;19956;-65
2023/03/10 08:22:33;;;;;;;;;;;9.40;99.90;;;;;;5027298;28;19929;-66
2023/03/10 08:25:00;;;;;;;;;;;9.50;99.90;;;;;;5021640;28;19925;-65
2023/03/10 08:27:27;;;;;;;;;;;9.50;99.90;;;;;;5021645;28;19925;-66
2023/03/10 08:29:55;;;;;;;;;;;9.40;99.90;;;;;;5022980;28;20362;-65
2023/03/10 08:32:22;;;;;;;;;;;9.40;99.90;;;;;;5022868;28;19925;-66
2023/03/10 08:34:48;;;;;;;;;;;10.20;99.90;;;;;;5026713;28;19928;-67
2023/03/10 08:37:17;;;;;;;15.68;6.07;;;9.50;99.90;;;;;;5022755;28;20428;-68
2023/03/10 08:39:45;;;;;;;12.73;5.70;;;9.60;99.90;;;;;;5018484;28;20499;-68
2023/03/10 08:42:12;;;;;;;13.13;5.40;;;9.70;99.90;;;;;;5021481;28;20574;-68
2023/03/10 08:44:40;;;;;;;14.43;5.80;;;9.90;99.90;;;;;;5030441;28;20446;-66
2023/03/10 08:47:09;;;;;;;9.27;5.10;;;9.80;99.90;;;;;;5022795;28;20438;-68
2023/03/10 08:49:35;;;;;;;11.32;5.20;;;9.90;99.90;;;;;;5028052;28;20415;-66
2023/03/10 08:52:02;;;;;;;10.68;4.93;;;9.60;99.90;;;;;;5022187;28;20422;-67
2023/03/10 08:54:29;;;;;;;9.00;4.50;;;9.90;99.90;;;;;;5023928;28;20790;-68
2023/03/10 08:56:56;;;;;;;11.63;4.30;;;10.10;99.90;;;;;;5019985;28;20523;-67
2023/03/10 08:59:22;;;;;;;11.57;4.30;;;10.10;99.90;;;;;;5010398;28;20408;-66
2023/03/10 09:01:49;;;;;;;11.82;4.50;;;10.00;99.90;;;;;;5009949;28;20413;-66
2023/03/10 09:04:17;;;;;;;8.00;3.90;;;9.80;99.90;;;;;;5009695;28;20876;-66
2023/03/10 09:06:44;;;;;;;15.85;4.82;;;9.80;99.90;;;;;;5010585;28;20432;-67
2023/03/10 09:09:11;;;;;;;9.83;4.23;;;9.80;99.90;;;;;;5010088;28;20417;-68
2023/03/10 09:11:40;;;;;;;12.95;4.28;;;9.80;99.90;;;;;;5017784;28;20419;-68
2023/03/10 09:14:09;;;;;;;9.25;3.70;;;10.00;99.90;;;;;;5029844;28;20845;-66
2023/03/10 09:16:38;;;;;;;9.70;3.47;;;10.00;99.90;;;;;;5022996;28;20403;-67
2023/03/10 09:19:05;;;;;;;9.85;3.35;;;10.00;99.90;;;;;;5015537;28;20409;-67
2023/03/10 09:21:33;;;;;;;13.10;3.93;;;10.00;99.90;;;;;;5021064;28;20894;-68
2023/03/10 09:24:02;;;;;;;10.80;3.55;;;10.00;99.90;;;;;;5020172;28;20421;-67
2023/03/10 09:26:29;;;;;;;9.30;3.45;;;9.90;99.90;;;;;;5018826;28;20441;-69
2023/03/10 09:28:56;;;;;;;9.48;3.45;;;10.10;99.90;;;;;;5020142;28;20418;-67
2023/03/10 09:31:25;;;;;;;11.55;3.38;;;10.00;99.90;;;;;;5020693;28;20444;-66
2023/03/10 09:33:52;;;;;;;9.93;3.70;;;10.00;99.90;;;;;;5019062;28;20910;-66
2023/03/10 09:36:18;;;;;;;10.90;3.28;;;9.80;99.90;;;;;;5018614;28;20411;-68
2023/03/10 09:38:46;;;;;;;9.07;3.33;;;9.90;99.90;;;;;;5021831;28;20447;-65
2023/03/10 09:41:35;;;;;;;9.73;3.20;;;10.00;99.90;;;;;;5024432;28;20422;-65
2023/03/10 09:44:12;;;;;;;10.95;3.80;;;10.10;99.90;;;;;;5025909;28;20442;-67
2023/03/10 09:46:49;;;;;;;10.90;3.63;;;10.40;99.90;;;;;;5024377;28;20485;-69
2023/03/10 09:49:22;;;;;;;12.80;3.25;;;10.60;99.90;;;;;;5025665;28;20419;-67
2023/03/10 09:51:50;;;;;;;10.27;3.30;;;10.80;99.90;;;;;;5021408;28;20417;-66
2023/03/10 09:54:39;;;;;;;11.18;3.50;;;10.80;99.90;;;;;;5017577;28;20442;-66
2023/03/10 09:57:14;;;;;;;12.50;3.40;;;11.00;99.90;;;;;;5020186;28;21054;-65
2023/03/10 09:59:43;;;;;;;10.85;3.08;;;11.10;99.90;;;;;;5021881;28;20900;-65
2023/03/10 10:02:18;;;;;;;9.70;2.80;;;11.20;99.90;;;;;;5032063;28;20415;-66
2023/03/10 10:04:47;;;;;;;10.63;3.37;;;11.30;99.90;;;;;;5025776;28;20423;-66
2023/03/10 10:07:17;;;;;;;9.73;3.35;;;11.30;99.90;;;;;;5021437;28;20438;-65
2023/03/10 10:09:48;;;;;;;8.45;2.83;;;11.30;99.90;;;;;;5011657;28;20467;-65
2023/03/10 10:12:17;;;;;;;9.52;2.83;;;11.30;99.90;;;;;;5018000;28;20422;-69
2023/03/10 10:14:44;;;;;;;9.70;2.92;;;11.30;99.90;;;;;;5030356;28;20445;-65
2023/03/10 10:17:28;;;;;;;8.50;3.00;;;11.40;99.90;;;;;;5028093;28;20418;-66
2023/03/10 10:19:56;;;;;;;9.43;3.13;;;11.30;99.90;;;;;;5027551;28;21211;-66
2023/03/10 10:22:27;;;;;;;11.30;3.28;;;11.30;99.90;;;;;;5031381;28;20480;-66
2023/03/10 10:25:02;;;;;;;8.38;3.08;;;11.30;99.90;;;;;;5028988;28;20909;-64
2023/03/10 10:27:31;;;;;;;8.98;3.20;;;11.20;99.90;;;;;;5023266;28;20419;-67
2023/03/10 10:29:57;;;;;;;10.85;3.20;;;11.10;99.90;;;;;;5032767;28;20414;-66
2023/03/10 10:32:24;;;;;;;9.20;2.90;;;11.10;99.90;;;;;;5022692;28;21155;-66
2023/03/10 10:34:51;;;;;;;7.65;2.53;;;11.30;99.90;;;;;;5024572;28;20424;-67
2023/03/10 10:37:26;;;;;;;12.00;3.15;;;11.40;99.90;;;;;;5023013;28;20415;-67
2023/03/10 10:39:54;;;;;;;10.27;3.20;;;11.40;99.90;;;;;;5028570;28;20449;-67
2023/03/10 10:42:25;;;;;;;10.73;3.55;;;11.50;99.90;;;;;;5030016;28;20419;-67
2023/03/10 10:44:54;;;;;;;8.95;3.67;;;11.60;99.90;;;;;;5031533;28;20427;-65
2023/03/10 10:47:27;;;;;;;12.50;3.75;;;11.60;99.90;;;;;;5023002;28;20431;-66
2023/03/10 10:49:55;;;;;;;9.43;3.40;;;11.50;99.90;;;;;;5030970;28;20422;-69
2023/03/10 10:52:24;;;;;;;11.48;4.05;;;11.60;99.90;;;;;;5019484;28;20970;-68
2023/03/10 10:54:55;;;;;;;11.75;3.55;;;11.70;99.90;;;;;;5031091;28;20434;-66
2023/03/10 10:57:31;;;;;;;11.98;3.58;;;11.80;99.90;;;;;;5019004;28;20425;-62
2023/03/10 11:00:17;;;;;;;10.57;3.53;;;11.70;99.90;;;;;;5022856;28;20442;-67
2023/03/10 11:02:44;;;;;;;9.45;2.88;;;11.80;99.90;;;;;;5025612;28;20418;-67
2023/03/10 11:05:16;;;;;;;8.65;2.50;;;11.90;99.80;;;;;;5023771;28;20489;-64
2023/03/10 11:07:43;;;;;;;10.48;2.78;;;11.90;99.80;;;;;;5012988;28;20499;-65
2023/03/10 11:10:13;;;;;;;6.38;2.47;;;11.80;99.90;;;;;;5011872;28;20475;-65
2023/03/10 11:12:58;;;;;;;8.48;2.47;;;11.90;99.80;;;;;;5016678;28;20504;-66
2023/03/10 11:15:30;;;;;;;9.23;2.53;;;12.00;97.60;;;;;;5031882;28;20455;-64
2023/03/10 11:18:03;;;;;;;6.20;2.70;;;12.10;52.60;;;;;;5028585;28;20414;-65
2023/03/10 11:20:36;;;;;;;10.47;3.40;;;12.10;69.20;;;;;;5028065;28;20447;-63
2023/03/10 11:23:14;;;;;;;8.95;3.55;;;12.20;65.60;;;;;;5028885;28;20781;-65
2023/03/10 11:25:47;;;;;;;10.35;3.80;;;12.10;71.10;;;;;;5022351;28;20424;-65
2023/03/10 11:28:28;;;;;;;9.20;4.70;;;12.10;72.40;;;;;;5038694;28;20441;-65
2023/03/10 11:31:04;;;;;;;10.10;4.80;;;12.10;57.50;;;;;;5024891;28;20515;-66
2023/03/10 11:33:41;;;;;;;9.88;4.90;;;12.20;29.60;;;;;;5021842;28;20445;-67
2023/03/10 11:36:19;;;;;;;9.55;4.63;;;12.20;39.40;;;;;;5020398;28;20424;-66
2023/03/10 11:38:49;;;;;;;10.73;4.53;;;12.10;42.60;;;;;;5020020;28;20420;-66
2023/03/10 11:41:19;;;;;;;9.77;4.03;;;12.20;38.10;;;;;;5020326;28;20430;-66
2023/03/10 11:43:55;;;;;;;9.02;4.28;;;12.00;28.60;;;;;;5031111;28;20446;-66
2023/03/10 11:46:25;;;;;;;11.38;4.03;;;12.00;41.80;;;;;;5024286;28;20451;-67
2023/03/10 11:49:05;;;;;;;8.40;3.38;;;11.70;56.60;;;;;;5026165;28;20419;-67
2023/03/10 11:51:38;;;;;;;6.97;2.78;;;11.60;70.10;;;;;;5022753;28;20472;-66
2023/03/10 11:54:13;;;;;;;8.32;3.63;;;11.50;94.10;;;;;;5022272;28;20470;-65
2023/03/10 11:56:40;;;;;;;11.23;3.80;;;11.10;99.90;;;;;;5021231;28;20412;-66
2023/03/10 11:59:13;;;;;;;9.02;3.85;;;10.80;99.90;;;;;;5017298;28;20510;-67
2023/03/10 12:01:45;;;;;;;7.00;3.20;;;10.60;99.90;;;;;;5023013;28;20423;-65
2023/03/10 12:04:17;;;;;;;9.27;3.10;;;10.30;99.90;;;;;;5023625;28;20428;-64
2023/03/10 12:06:47;;;;;;;6.53;3.92;;;10.30;99.90;;;;;;5019695;28;20502;-66
2023/03/10 12:09:21;;;;;;;7.00;3.65;;;10.10;99.90;;;;;;5028460;28;20419;-67
2023/03/10 12:11:48;;;;;;;6.23;2.83;;;10.00;99.90;;;;;;5027131;28;20429;-67
2023/03/10 12:14:16;;;;;;;9.30;2.83;;;9.90;99.90;;;;;;5026375;28;20444;-66
2023/03/10 12:16:44;;;;;;;6.07;2.50;;;10.00;99.90;;;;;;5020256;28;20414;-67
2023/03/10 12:19:11;;;;;;;6.32;2.55;;;9.90;99.90;;;;;;5021947;28;20940;-67
2023/03/10 12:21:38;;;;;;;5.20;2.63;;;9.80;99.90;;;;;;5020686;28;20427;-64
2023/03/10 12:24:05;;;;;;;11.82;3.10;;;9.80;99.90;;;;;;5026441;28;20801;-66
2023/03/10 12:27:02;;;;;;;6.72;2.40;;;9.90;99.90;;;;;;5023829;28;20522;-66
2023/03/10 12:29:39;;;;;;;6.73;2.63;;;9.70;99.90;;;;;;5022894;28;20539;-67
2023/03/10 12:32:40;;;;;;;7.22;2.30;;;9.60;99.90;;;;;;5023062;28;20427;-67
2023/03/10 12:35:41;;;;;;;8.60;2.80;;;9.50;99.90;;;;;;5023697;28;20834;-67
2023/03/10 12:38:31;;;;;;;6.75;2.50;;;9.60;99.90;;;;;;5018295;28;20408;-66
2023/03/10 12:40:59;;;;;;;6.60;2.42;;;9.60;99.90;;;;;;5017397;28;20423;-66
2023/03/10 12:44:02;;;;;;;7.00;2.45;;;9.60;99.90;;;;;;5029157;28;20909;-68
2023/03/10 12:46:45;;;;;;;7.28;2.15;;;10.00;99.90;;;;;;5021971;28;20429;-67
2023/03/10 12:49:23;;;;;;;6.20;1.90;;;9.60;99.90;;;;;;5024459;28;20411;-68
2023/03/10 12:51:54;;;;;;;4.57;1.60;;;9.70;99.90;;;;;;5026945;28;20774;-70
2023/03/10 12:54:47;;;;;;;4.53;1.98;;;9.70;99.90;;;;;;5021130;28;20415;-68
2023/03/10 12:57:19;;;;;;;5.18;1.48;;;9.80;99.90;;;;;;5012914;28;20921;-68
2023/03/10 13:00:01;;;;;;;5.32;1.27;;;10.00;99.90;;;;;;5021304;28;20429;-69
2023/03/10 13:02:38;;;;;;;4.55;1.40;;;9.80;99.90;;;;;;5024276;28;20418;-68
2023/03/10 13:05:17;;;;;;;3.50;1.05;;;9.80;99.90;;;;;;5027133;28;20415;-67
2023/03/10 13:07:47;;;;;;;3.67;1.33;;;9.80;99.90;;;;;;5021446;28;20428;-68
2023/03/10 13:10:18;;;;;;;4.18;1.13;;;9.90;99.90;;;;;;5020684;28;20923;-68
2023/03/10 13:12:49;;;;;;;2.88;1.20;;;9.80;99.90;;;;;;5023843;28;20411;-68
2023/03/10 13:15:22;;;;;;;3.83;1.30;;;9.80;99.90;;;;;;5030012;28;20898;-68
2023/03/10 13:17:50;;;;;;;2.17;1.08;;;9.80;99.90;;;;;;5020150;28;20440;-68
2023/03/10 13:20:18;;;;;;;3.08;0.98;;;9.80;99.90;;;;;;5021154;28;20422;-68
2023/03/10 13:22:53;;;;;;;2.90;1.10;;;9.90;99.90;;;;;;5023016;28;20878;-68
2023/03/10 13:25:20;;;;;;;2.92;1.30;;;9.80;99.90;;;;;;5024933;28;20947;-68
2023/03/10 13:27:47;;;;;;;1.95;0.95;;;9.80;99.90;;;;;;5018722;28;20486;-68
2023/03/10 13:30:16;;;;;;;3.85;1.10;;;9.70;99.90;;;;;;5022151;28;20428;-67
2023/03/10 13:32:53;;;;;;;2.35;1.10;;;9.60;99.90;;;;;;5018573;28;20431;-68
2023/03/10 13:35:28;;;;;;;3.67;1.25;;;9.50;99.90;;;;;;5026813;28;20429;-67
2023/03/10 13:38:07;;;;;;;3.58;1.40;;;9.40;99.90;;;;;;5022533;28;20430;-67
2023/03/10 13:40:33;;;;;;;3.17;1.10;;;9.50;99.90;;;;;;5015718;28;20403;-67
2023/03/10 13:43:00;;;;;;;4.50;1.60;;;9.60;99.90;;;;;;5026328;28;20778;-68
2023/03/10 13:45:32;;;;;;;2.92;1.30;;;9.50;99.90;;;;;;5021699;28;20977;-68
2023/03/10 13:48:03;;;;;;;1.88;1.00;;;9.60;99.90;;;;;;5024850;28;20441;-68
2023/03/10 13:50:30;;;;;;;3.90;1.30;;;9.50;99.90;;;;;;5022133;28;20511;-68
2023/03/10 13:52:58;;;;;;;2.20;1.10;;;9.40;99.90;;;;;;5025832;28;20439;-67
2023/03/10 13:55:28;;;;;;;2.35;1.30;;;9.40;99.90;;;;;;5020414;28;20488;-68
2023/03/10 13:57:55;;;;;;;3.35;1.85;;;9.30;99.90;;;;;;5024145;28;20416;-67
2023/03/10 14:00:24;;;;;;;2.90;1.75;;;9.50;99.90;;;;;;5027442;28;20423;-67